ALA313 UWLL-UGTB
Flight info
| Callsign | ALA313 |
|---|---|
| Flight time | 2h 8m |
| Altitude | 38000 |
| Route | NEPNI1M NEPNI T789 DAFOS P135 UROBO R807 NIRGA A835 GUSLI/N0448F390 M54 LAGAS |
| Aircraft | A20N/M-SDE3FGHIRWY/LB1 |
Departure
| Time | 2026-05-03 20:15 |
|---|---|
| Airport | Ulyanovsk Baratayevka Airport (UWLL) |
Arrival
| Time | 2026-05-03 22:23 |
|---|---|
| Airport | Tbilisi International Airport (UGTB) |
| Time | Latitude | Longitude | Altitude | Speed | Heading |
|---|---|---|---|---|---|
| 2026-05-03 20:15 | 54.15724 | 48.13071 | 5570 ft | 275 kts | 201° |
| 2026-05-03 20:15 | 54.13928 | 48.11971 | 6464 ft | 279 kts | 201° |
| 2026-05-03 20:15 | 54.12123 | 48.10841 | 7343 ft | 284 kts | 201° |
| 2026-05-03 20:15 | 54.10272 | 48.09671 | 8214 ft | 288 kts | 201° |
| 2026-05-03 20:16 | 54.08372 | 48.08466 | 9082 ft | 293 kts | 200° |
| 2026-05-03 20:16 | 54.06456 | 48.07252 | 9912 ft | 299 kts | 200° |
| 2026-05-03 20:16 | 54.04515 | 48.06027 | 10655 ft | 307 kts | 199° |
| 2026-05-03 20:16 | 54.02449 | 48.04727 | 11138 ft | 325 kts | 199° |
| 2026-05-03 20:17 | 54.00280 | 48.03361 | 11564 ft | 343 kts | 200° |
| 2026-05-03 20:17 | 53.97997 | 48.01922 | 12126 ft | 355 kts | 200° |
| 2026-05-03 20:17 | 53.95701 | 48.00476 | 12890 ft | 360 kts | 200° |
| 2026-05-03 20:17 | 53.93344 | 47.98991 | 13698 ft | 363 kts | 200° |
| 2026-05-03 20:18 | 53.90980 | 47.97503 | 14463 ft | 367 kts | 200° |
| 2026-05-03 20:18 | 53.88575 | 47.95994 | 15230 ft | 370 kts | 200° |
| 2026-05-03 20:18 | 53.86176 | 47.94496 | 15991 ft | 373 kts | 200° |
| 2026-05-03 20:18 | 53.83724 | 47.92963 | 16726 ft | 376 kts | 200° |
| 2026-05-03 20:19 | 53.81294 | 47.91444 | 17417 ft | 379 kts | 200° |
| 2026-05-03 20:19 | 53.78825 | 47.89901 | 18118 ft | 382 kts | 200° |
| 2026-05-03 20:19 | 53.76333 | 47.88343 | 18809 ft | 384 kts | 200° |
| 2026-05-03 20:19 | 53.73831 | 47.86780 | 19474 ft | 387 kts | 200° |
| 2026-05-03 20:20 | 53.71286 | 47.85194 | 20115 ft | 391 kts | 200° |
| 2026-05-03 20:20 | 53.68762 | 47.83597 | 20717 ft | 395 kts | 201° |
| 2026-05-03 20:20 | 53.66213 | 47.81909 | 21286 ft | 399 kts | 201° |
| 2026-05-03 20:20 | 53.63618 | 47.80171 | 21854 ft | 403 kts | 201° |
| 2026-05-03 20:21 | 53.60997 | 47.78417 | 22433 ft | 407 kts | 201° |
| 2026-05-03 20:21 | 53.58369 | 47.76666 | 22988 ft | 411 kts | 201° |
| 2026-05-03 20:21 | 53.55719 | 47.74908 | 23515 ft | 415 kts | 201° |
| 2026-05-03 20:21 | 53.53030 | 47.73132 | 24038 ft | 419 kts | 201° |
| 2026-05-03 20:22 | 53.50318 | 47.71341 | 24559 ft | 422 kts | 201° |
| 2026-05-03 20:22 | 53.47621 | 47.69392 | 25077 ft | 425 kts | 204° |
| 2026-05-03 20:22 | 53.44981 | 47.67164 | 25595 ft | 427 kts | 207° |
| 2026-05-03 20:22 | 53.42370 | 47.64800 | 26088 ft | 430 kts | 208° |
| 2026-05-03 20:23 | 53.39740 | 47.62420 | 26561 ft | 432 kts | 208° |
| 2026-05-03 20:23 | 53.37106 | 47.60038 | 27018 ft | 435 kts | 208° |
| 2026-05-03 20:23 | 53.34428 | 47.57624 | 27458 ft | 437 kts | 208° |
| 2026-05-03 20:23 | 53.31780 | 47.55240 | 27866 ft | 440 kts | 208° |
| 2026-05-03 20:24 | 53.29067 | 47.52805 | 28301 ft | 441 kts | 208° |
| 2026-05-03 20:24 | 53.26392 | 47.50405 | 28719 ft | 443 kts | 208° |
| 2026-05-03 20:24 | 53.23654 | 47.47953 | 29122 ft | 445 kts | 208° |
| 2026-05-03 20:24 | 53.20937 | 47.45525 | 29622 ft | 444 kts | 208° |
| 2026-05-03 20:25 | 53.18240 | 47.43119 | 30146 ft | 441 kts | 208° |
| 2026-05-03 20:25 | 53.15544 | 47.40717 | 30635 ft | 439 kts | 207° |
| 2026-05-03 20:25 | 53.12876 | 47.38347 | 31037 ft | 437 kts | 208° |
| 2026-05-03 20:25 | 53.10217 | 47.35990 | 31379 ft | 436 kts | 208° |
| 2026-05-03 20:26 | 53.07531 | 47.33608 | 31730 ft | 435 kts | 207° |
| 2026-05-03 20:26 | 53.04903 | 47.31265 | 32038 ft | 435 kts | 208° |
| 2026-05-03 20:26 | 53.02223 | 47.28882 | 32368 ft | 433 kts | 208° |
| 2026-05-03 20:26 | 52.99593 | 47.26550 | 32694 ft | 432 kts | 208° |
| 2026-05-03 20:27 | 52.96950 | 47.24214 | 33027 ft | 430 kts | 208° |
| 2026-05-03 20:27 | 52.94320 | 47.21894 | 33355 ft | 429 kts | 208° |
| 2026-05-03 20:27 | 52.91708 | 47.19593 | 33667 ft | 427 kts | 208° |
| 2026-05-03 20:27 | 52.89089 | 47.17293 | 34004 ft | 426 kts | 209° |
| 2026-05-03 20:28 | 52.86496 | 47.15029 | 34352 ft | 425 kts | 209° |
| 2026-05-03 20:28 | 52.83894 | 47.12756 | 34682 ft | 424 kts | 209° |
| 2026-05-03 20:28 | 52.81294 | 47.10487 | 34979 ft | 423 kts | 209° |
| 2026-05-03 20:28 | 52.78728 | 47.08248 | 35272 ft | 422 kts | 209° |
| 2026-05-03 20:29 | 52.76128 | 47.05984 | 35551 ft | 422 kts | 209° |
| 2026-05-03 20:29 | 52.73563 | 47.03749 | 35815 ft | 421 kts | 209° |
| 2026-05-03 20:29 | 52.70960 | 47.01486 | 36063 ft | 421 kts | 209° |
| 2026-05-03 20:29 | 52.68380 | 46.99244 | 36298 ft | 421 kts | 209° |
| 2026-05-03 20:30 | 52.65795 | 46.97001 | 36514 ft | 421 kts | 209° |
| 2026-05-03 20:30 | 52.63209 | 46.94758 | 36701 ft | 422 kts | 209° |
| 2026-05-03 20:30 | 52.60616 | 46.92512 | 36863 ft | 423 kts | 209° |
| 2026-05-03 20:30 | 52.58009 | 46.90256 | 37015 ft | 425 kts | 209° |
| 2026-05-03 20:31 | 52.55398 | 46.88001 | 37169 ft | 426 kts | 209° |
| 2026-05-03 20:31 | 52.52793 | 46.85757 | 37338 ft | 427 kts | 210° |
| 2026-05-03 20:31 | 52.50185 | 46.83512 | 37501 ft | 427 kts | 209° |
| 2026-05-03 20:31 | 52.47536 | 46.81237 | 37651 ft | 428 kts | 209° |
| 2026-05-03 20:32 | 52.44917 | 46.78990 | 37783 ft | 429 kts | 210° |
| 2026-05-03 20:32 | 52.42295 | 46.76744 | 37916 ft | 430 kts | 210° |
| 2026-05-03 20:32 | 52.39621 | 46.74455 | 38048 ft | 431 kts | 210° |
| 2026-05-03 20:33 | 52.34321 | 46.69926 | 38076 ft | 432 kts | 209° |
| 2026-05-03 20:33 | 52.29012 | 46.65400 | 38080 ft | 432 kts | 210° |
| 2026-05-03 20:34 | 52.23725 | 46.60907 | 38082 ft | 432 kts | 210° |
| 2026-05-03 20:34 | 52.18393 | 46.56387 | 38086 ft | 432 kts | 209° |
| 2026-05-03 20:35 | 52.13102 | 46.51920 | 38085 ft | 432 kts | 209° |
| 2026-05-03 20:35 | 52.07784 | 46.47439 | 38088 ft | 431 kts | 210° |
| 2026-05-03 20:36 | 52.02482 | 46.42983 | 38078 ft | 431 kts | 209° |
| 2026-05-03 20:36 | 51.97167 | 46.38531 | 38094 ft | 430 kts | 210° |
| 2026-05-03 20:37 | 51.91874 | 46.34106 | 38093 ft | 430 kts | 209° |
| 2026-05-03 20:37 | 51.86586 | 46.29681 | 38095 ft | 430 kts | 208° |
| 2026-05-03 20:38 | 51.81271 | 46.25272 | 38095 ft | 430 kts | 209° |
| 2026-05-03 20:38 | 51.75983 | 46.20889 | 38095 ft | 430 kts | 209° |
| 2026-05-03 20:39 | 51.70679 | 46.16506 | 38097 ft | 429 kts | 209° |
| 2026-05-03 20:39 | 51.65387 | 46.12136 | 38097 ft | 430 kts | 209° |
| 2026-05-03 20:40 | 51.60087 | 46.07776 | 38107 ft | 429 kts | 209° |
| 2026-05-03 20:40 | 51.54785 | 46.03460 | 38109 ft | 429 kts | 208° |
| 2026-05-03 20:41 | 51.49402 | 45.99358 | 38110 ft | 429 kts | 207° |
| 2026-05-03 20:41 | 51.44006 | 45.95274 | 38110 ft | 428 kts | 207° |
| 2026-05-03 20:42 | 51.38644 | 45.91207 | 38110 ft | 428 kts | 207° |
| 2026-05-03 20:42 | 51.33285 | 45.87146 | 38110 ft | 428 kts | 208° |
| 2026-05-03 20:43 | 51.27944 | 45.83107 | 38111 ft | 428 kts | 208° |
| 2026-05-03 20:43 | 51.22562 | 45.79047 | 38113 ft | 428 kts | 208° |
| 2026-05-03 20:44 | 51.17193 | 45.75005 | 38114 ft | 428 kts | 208° |
| 2026-05-03 20:44 | 51.11855 | 45.70996 | 38114 ft | 428 kts | 208° |
| 2026-05-03 20:45 | 51.06459 | 45.67039 | 38113 ft | 428 kts | 205° |
| 2026-05-03 20:45 | 51.00839 | 45.63843 | 38111 ft | 430 kts | 199° |
| 2026-05-03 20:46 | 50.95058 | 45.61590 | 38143 ft | 430 kts | 196° |
| 2026-05-03 20:46 | 50.89242 | 45.59490 | 38107 ft | 430 kts | 196° |
| 2026-05-03 20:47 | 50.83441 | 45.57409 | 38140 ft | 430 kts | 196° |
| 2026-05-03 20:47 | 50.77609 | 45.55327 | 38134 ft | 429 kts | 196° |
| 2026-05-03 20:48 | 50.71803 | 45.53307 | 38123 ft | 428 kts | 196° |
| 2026-05-03 20:48 | 50.66038 | 45.51308 | 38121 ft | 428 kts | 196° |
| 2026-05-03 20:49 | 50.60234 | 45.49295 | 38135 ft | 428 kts | 197° |
| 2026-05-03 20:49 | 50.54413 | 45.47276 | 38131 ft | 428 kts | 196° |
| 2026-05-03 20:50 | 50.48636 | 45.45279 | 38146 ft | 428 kts | 197° |
| 2026-05-03 20:50 | 50.42833 | 45.43277 | 38138 ft | 428 kts | 197° |
| 2026-05-03 20:51 | 50.37060 | 45.41287 | 38138 ft | 428 kts | 197° |
| 2026-05-03 20:51 | 50.31233 | 45.39288 | 38118 ft | 428 kts | 197° |
| 2026-05-03 20:52 | 50.25466 | 45.37312 | 38140 ft | 428 kts | 197° |
| 2026-05-03 20:52 | 50.19674 | 45.35331 | 38149 ft | 428 kts | 197° |
| 2026-05-03 20:53 | 50.13874 | 45.33333 | 38137 ft | 428 kts | 197° |
| 2026-05-03 20:53 | 50.08047 | 45.31335 | 38145 ft | 428 kts | 197° |
| 2026-05-03 20:54 | 50.02256 | 45.29342 | 38127 ft | 427 kts | 198° |
| 2026-05-03 20:54 | 49.93705 | 45.25621 | 38138 ft | 428 kts | 200° |
| 2026-05-03 20:55 | 49.88005 | 45.23125 | 38148 ft | 427 kts | 200° |
| 2026-05-03 20:55 | 49.82291 | 45.20632 | 38142 ft | 427 kts | 200° |
| 2026-05-03 20:56 | 49.76590 | 45.18137 | 38130 ft | 427 kts | 200° |
| 2026-05-03 20:56 | 49.70888 | 45.15644 | 38153 ft | 427 kts | 200° |
| 2026-05-03 20:57 | 49.65206 | 45.13168 | 38151 ft | 426 kts | 200° |
| 2026-05-03 20:57 | 49.59512 | 45.10706 | 38130 ft | 426 kts | 200° |
| 2026-05-03 20:58 | 49.53802 | 45.08245 | 38124 ft | 426 kts | 200° |
| 2026-05-03 20:58 | 49.48105 | 45.05790 | 38137 ft | 426 kts | 200° |
| 2026-05-03 20:59 | 49.42412 | 45.03345 | 38141 ft | 426 kts | 200° |
| 2026-05-03 20:59 | 49.36751 | 45.00917 | 38153 ft | 425 kts | 200° |
| 2026-05-03 21:00 | 49.32011 | 44.98889 | 38162 ft | 425 kts | 199° |
| 2026-05-03 21:00 | 49.25393 | 44.96066 | 38156 ft | 425 kts | 199° |
| 2026-05-03 21:01 | 49.19705 | 44.93645 | 38136 ft | 425 kts | 199° |
| 2026-05-03 21:01 | 49.14047 | 44.91242 | 38148 ft | 425 kts | 200° |
| 2026-05-03 21:02 | 49.08370 | 44.88834 | 38134 ft | 424 kts | 200° |
| 2026-05-03 21:02 | 49.02681 | 44.86430 | 38159 ft | 424 kts | 200° |
| 2026-05-03 21:03 | 48.96995 | 44.84033 | 38142 ft | 424 kts | 199° |
| 2026-05-03 21:03 | 48.91350 | 44.81656 | 38153 ft | 424 kts | 200° |
| 2026-05-03 21:04 | 48.85692 | 44.79291 | 38140 ft | 424 kts | 200° |
| 2026-05-03 21:04 | 48.80082 | 44.76643 | 38158 ft | 423 kts | 202° |
| 2026-05-03 21:05 | 48.74477 | 44.73855 | 38143 ft | 423 kts | 202° |
| 2026-05-03 21:05 | 48.68908 | 44.71086 | 38144 ft | 423 kts | 202° |
| 2026-05-03 21:06 | 48.63360 | 44.68330 | 38146 ft | 423 kts | 202° |
| 2026-05-03 21:06 | 48.57755 | 44.65566 | 38146 ft | 423 kts | 202° |
| 2026-05-03 21:07 | 48.52205 | 44.62832 | 38137 ft | 422 kts | 202° |
| 2026-05-03 21:07 | 48.46630 | 44.60102 | 38133 ft | 422 kts | 202° |
| 2026-05-03 21:08 | 48.41067 | 44.57382 | 38136 ft | 422 kts | 202° |
| 2026-05-03 21:08 | 48.35473 | 44.54647 | 38122 ft | 422 kts | 202° |
| 2026-05-03 21:09 | 48.29905 | 44.51931 | 38134 ft | 422 kts | 202° |
| 2026-05-03 21:09 | 48.24337 | 44.49220 | 38118 ft | 422 kts | 202° |
| 2026-05-03 21:10 | 48.18800 | 44.46531 | 38135 ft | 422 kts | 202° |
| 2026-05-03 21:10 | 48.13207 | 44.43819 | 38123 ft | 421 kts | 202° |
| 2026-05-03 21:11 | 48.07682 | 44.41146 | 38139 ft | 421 kts | 202° |
| 2026-05-03 21:11 | 48.02124 | 44.38460 | 38122 ft | 421 kts | 202° |
| 2026-05-03 21:12 | 47.96569 | 44.35787 | 38123 ft | 421 kts | 202° |
| 2026-05-03 21:12 | 47.90929 | 44.33318 | 38121 ft | 422 kts | 197° |
| 2026-05-03 21:13 | 47.85254 | 44.31271 | 38125 ft | 421 kts | 197° |
| 2026-05-03 21:13 | 47.79584 | 44.29223 | 38118 ft | 420 kts | 197° |
| 2026-05-03 21:14 | 47.73904 | 44.27176 | 38134 ft | 420 kts | 197° |
| 2026-05-03 21:14 | 47.68212 | 44.25133 | 38102 ft | 420 kts | 197° |
| 2026-05-03 21:15 | 47.62548 | 44.23107 | 38124 ft | 420 kts | 197° |
| 2026-05-03 21:15 | 47.56911 | 44.21091 | 38109 ft | 419 kts | 197° |
| 2026-05-03 21:16 | 47.51259 | 44.19076 | 38122 ft | 419 kts | 197° |
| 2026-05-03 21:16 | 47.45583 | 44.17058 | 38114 ft | 419 kts | 197° |
| 2026-05-03 21:17 | 47.40889 | 44.15392 | 38098 ft | 419 kts | 197° |
| 2026-05-03 21:17 | 47.34270 | 44.13047 | 38107 ft | 419 kts | 197° |
| 2026-05-03 21:18 | 47.28618 | 44.11051 | 38101 ft | 419 kts | 197° |
| 2026-05-03 21:18 | 47.22977 | 44.09062 | 38110 ft | 419 kts | 197° |
| 2026-05-03 21:19 | 47.17306 | 44.07068 | 38101 ft | 419 kts | 197° |
| 2026-05-03 21:19 | 47.11658 | 44.05085 | 38092 ft | 418 kts | 197° |
| 2026-05-03 21:20 | 47.06025 | 44.03112 | 38101 ft | 418 kts | 197° |
| 2026-05-03 21:20 | 47.00370 | 44.01135 | 38100 ft | 418 kts | 197° |
| 2026-05-03 21:21 | 46.94716 | 43.99176 | 38088 ft | 418 kts | 197° |
| 2026-05-03 21:21 | 46.89059 | 43.97228 | 38089 ft | 418 kts | 197° |
| 2026-05-03 21:22 | 46.83427 | 43.95303 | 38082 ft | 418 kts | 197° |
| 2026-05-03 21:22 | 46.77779 | 43.93370 | 38083 ft | 418 kts | 197° |
| 2026-05-03 21:23 | 46.72124 | 43.91433 | 38084 ft | 418 kts | 197° |
| 2026-05-03 21:23 | 46.66502 | 43.89510 | 38080 ft | 418 kts | 197° |
| 2026-05-03 21:24 | 46.60842 | 43.87577 | 38081 ft | 418 kts | 197° |
| 2026-05-03 21:24 | 46.55204 | 43.85655 | 38081 ft | 417 kts | 197° |
| 2026-05-03 21:25 | 46.49532 | 43.83728 | 38076 ft | 417 kts | 196° |
| 2026-05-03 21:25 | 46.43909 | 43.81830 | 38079 ft | 417 kts | 196° |
| 2026-05-03 21:26 | 46.38282 | 43.79932 | 38081 ft | 417 kts | 197° |
| 2026-05-03 21:26 | 46.32633 | 43.78028 | 38077 ft | 417 kts | 196° |
| 2026-05-03 21:27 | 46.26971 | 43.76122 | 38077 ft | 417 kts | 196° |
| 2026-05-03 21:27 | 46.21363 | 43.74241 | 38077 ft | 417 kts | 196° |
| 2026-05-03 21:28 | 46.15725 | 43.72351 | 38078 ft | 417 kts | 196° |
| 2026-05-03 21:28 | 46.10053 | 43.70453 | 38077 ft | 417 kts | 196° |
| 2026-05-03 21:29 | 46.04439 | 43.68578 | 38076 ft | 417 kts | 196° |
| 2026-05-03 21:29 | 45.98781 | 43.66725 | 38077 ft | 417 kts | 195° |
| 2026-05-03 21:30 | 45.93115 | 43.65126 | 38077 ft | 417 kts | 194° |
| 2026-05-03 21:30 | 45.87399 | 43.63538 | 38074 ft | 417 kts | 194° |
| 2026-05-03 21:31 | 45.81718 | 43.61948 | 38075 ft | 416 kts | 194° |
| 2026-05-03 21:31 | 45.76042 | 43.60354 | 38074 ft | 416 kts | 194° |
| 2026-05-03 21:32 | 45.70399 | 43.58766 | 38071 ft | 416 kts | 194° |
| 2026-05-03 21:32 | 45.64695 | 43.57159 | 38072 ft | 416 kts | 194° |
| 2026-05-03 21:33 | 45.59043 | 43.55571 | 38072 ft | 416 kts | 194° |
| 2026-05-03 21:33 | 45.53350 | 43.53973 | 38070 ft | 416 kts | 194° |
| 2026-05-03 21:34 | 45.47689 | 43.52390 | 38070 ft | 416 kts | 194° |
| 2026-05-03 21:34 | 45.42010 | 43.50822 | 38070 ft | 416 kts | 194° |
| 2026-05-03 21:35 | 45.36332 | 43.49252 | 38069 ft | 416 kts | 194° |
| 2026-05-03 21:35 | 45.30678 | 43.47689 | 38067 ft | 415 kts | 194° |
| 2026-05-03 21:36 | 45.25025 | 43.46128 | 38064 ft | 415 kts | 194° |
| 2026-05-03 21:36 | 45.19368 | 43.44564 | 38067 ft | 415 kts | 194° |
| 2026-05-03 21:37 | 45.13709 | 43.43008 | 38066 ft | 415 kts | 194° |
| 2026-05-03 21:37 | 45.08024 | 43.41716 | 38067 ft | 416 kts | 189° |
| 2026-05-03 21:38 | 45.02234 | 43.41196 | 38065 ft | 417 kts | 186° |
| 2026-05-03 21:38 | 44.96439 | 43.40816 | 38065 ft | 418 kts | 186° |
| 2026-05-03 21:39 | 44.90626 | 43.40440 | 38059 ft | 418 kts | 186° |
| 2026-05-03 21:39 | 44.84831 | 43.40065 | 38055 ft | 418 kts | 186° |
| 2026-05-03 21:40 | 44.79023 | 43.39697 | 38051 ft | 419 kts | 186° |
| 2026-05-03 21:40 | 44.73221 | 43.39325 | 38051 ft | 419 kts | 186° |
| 2026-05-03 21:41 | 44.67413 | 43.38953 | 38058 ft | 419 kts | 186° |
| 2026-05-03 21:41 | 44.61587 | 43.38577 | 38052 ft | 419 kts | 186° |
| 2026-05-03 21:42 | 44.55755 | 43.38201 | 38037 ft | 420 kts | 186° |
| 2026-05-03 21:42 | 44.49918 | 43.37836 | 38051 ft | 421 kts | 185° |
| 2026-05-03 21:43 | 44.44093 | 43.37498 | 38041 ft | 420 kts | 185° |
| 2026-05-03 21:43 | 44.38244 | 43.37151 | 38053 ft | 421 kts | 186° |
| 2026-05-03 21:44 | 44.32424 | 43.36804 | 38047 ft | 421 kts | 186° |
| 2026-05-03 21:44 | 44.26580 | 43.36454 | 38042 ft | 421 kts | 185° |
| 2026-05-03 21:45 | 44.20708 | 43.36102 | 38038 ft | 423 kts | 185° |
| 2026-05-03 21:45 | 44.14856 | 43.35752 | 38044 ft | 422 kts | 185° |
| 2026-05-03 21:46 | 44.08985 | 43.35403 | 38038 ft | 423 kts | 185° |
| 2026-05-03 21:46 | 44.03101 | 43.35053 | 38038 ft | 423 kts | 185° |
| 2026-05-03 21:47 | 43.97258 | 43.34686 | 38031 ft | 424 kts | 185° |
| 2026-05-03 21:47 | 43.91365 | 43.34315 | 38017 ft | 424 kts | 185° |
| 2026-05-03 21:48 | 43.85465 | 43.33960 | 38017 ft | 424 kts | 185° |
| 2026-05-03 21:48 | 43.79596 | 43.33613 | 38016 ft | 424 kts | 185° |
| 2026-05-03 21:49 | 43.73722 | 43.33269 | 38016 ft | 423 kts | 185° |
| 2026-05-03 21:49 | 43.67869 | 43.32923 | 38013 ft | 424 kts | 185° |
| 2026-05-03 21:50 | 43.61990 | 43.32579 | 38007 ft | 423 kts | 185° |
| 2026-05-03 21:50 | 43.56097 | 43.32235 | 38012 ft | 423 kts | 185° |
| 2026-05-03 21:51 | 43.50268 | 43.31894 | 38018 ft | 422 kts | 185° |
| 2026-05-03 21:51 | 43.44407 | 43.31551 | 38022 ft | 422 kts | 185° |
| 2026-05-03 21:52 | 43.38546 | 43.31210 | 38034 ft | 423 kts | 185° |
| 2026-05-03 21:52 | 43.32684 | 43.30870 | 38044 ft | 421 kts | 185° |
| 2026-05-03 21:53 | 43.26843 | 43.30530 | 38054 ft | 422 kts | 185° |
| 2026-05-03 21:53 | 43.20974 | 43.30193 | 38072 ft | 421 kts | 185° |
| 2026-05-03 21:54 | 43.15109 | 43.29852 | 38090 ft | 421 kts | 185° |
| 2026-05-03 21:54 | 43.09280 | 43.29518 | 38110 ft | 421 kts | 185° |
| 2026-05-03 21:55 | 43.03423 | 43.29180 | 38121 ft | 421 kts | 185° |
| 2026-05-03 21:55 | 42.97548 | 43.29132 | 38129 ft | 424 kts | 179° |
| 2026-05-03 21:56 | 42.91729 | 43.30329 | 38117 ft | 427 kts | 169° |
| 2026-05-03 21:56 | 42.86048 | 43.32856 | 38096 ft | 432 kts | 160° |
| 2026-05-03 21:57 | 42.80662 | 43.36490 | 38081 ft | 435 kts | 155° |
| 2026-05-03 21:57 | 42.75334 | 43.40316 | 37958 ft | 436 kts | 155° |
| 2026-05-03 21:58 | 42.72644 | 43.42245 | 37601 ft | 434 kts | 156° |
| 2026-05-03 21:58 | 42.69985 | 43.44149 | 37138 ft | 431 kts | 156° |
| 2026-05-03 21:58 | 42.67303 | 43.46065 | 36495 ft | 430 kts | 155° |
| 2026-05-03 21:58 | 42.64664 | 43.47948 | 35922 ft | 429 kts | 155° |
| 2026-05-03 21:59 | 42.62053 | 43.49810 | 35357 ft | 430 kts | 155° |
| 2026-05-03 21:59 | 42.59375 | 43.51714 | 34684 ft | 433 kts | 155° |
| 2026-05-03 21:59 | 42.56711 | 43.53605 | 33940 ft | 437 kts | 155° |
| 2026-05-03 21:59 | 42.54052 | 43.55494 | 33229 ft | 437 kts | 155° |
| 2026-05-03 22:00 | 42.51368 | 43.57399 | 32590 ft | 435 kts | 154° |
| 2026-05-03 22:00 | 42.48697 | 43.59293 | 31969 ft | 432 kts | 154° |
| 2026-05-03 22:00 | 42.46046 | 43.61174 | 31354 ft | 430 kts | 154° |
| 2026-05-03 22:00 | 42.43383 | 43.63059 | 30719 ft | 430 kts | 154° |
| 2026-05-03 22:01 | 42.40770 | 43.64908 | 30095 ft | 430 kts | 154° |
| 2026-05-03 22:01 | 42.38119 | 43.66789 | 29443 ft | 429 kts | 154° |
| 2026-05-03 22:01 | 42.35499 | 43.68655 | 28982 ft | 424 kts | 154° |
| 2026-05-03 22:01 | 42.32877 | 43.70521 | 28508 ft | 421 kts | 154° |
| 2026-05-03 22:02 | 42.30312 | 43.72337 | 28024 ft | 418 kts | 154° |
| 2026-05-03 22:02 | 42.27742 | 43.74151 | 27527 ft | 414 kts | 155° |
| 2026-05-03 22:02 | 42.25224 | 43.75923 | 27027 ft | 411 kts | 154° |
| 2026-05-03 22:02 | 42.22699 | 43.77700 | 26537 ft | 407 kts | 154° |
| 2026-05-03 22:03 | 42.20219 | 43.79442 | 26043 ft | 403 kts | 154° |
| 2026-05-03 22:03 | 42.17716 | 43.81197 | 25543 ft | 400 kts | 154° |
| 2026-05-03 22:03 | 42.15269 | 43.82912 | 25052 ft | 396 kts | 154° |
| 2026-05-03 22:03 | 42.12863 | 43.84597 | 24585 ft | 392 kts | 154° |
| 2026-05-03 22:04 | 42.10442 | 43.86288 | 24116 ft | 389 kts | 154° |
| 2026-05-03 22:04 | 42.08077 | 43.87941 | 23639 ft | 386 kts | 154° |
| 2026-05-03 22:04 | 42.05695 | 43.89605 | 23143 ft | 383 kts | 154° |
| 2026-05-03 22:04 | 42.03349 | 43.91243 | 22684 ft | 380 kts | 154° |
| 2026-05-03 22:05 | 42.01006 | 43.92876 | 22200 ft | 377 kts | 155° |
| 2026-05-03 22:05 | 41.98676 | 43.94500 | 21718 ft | 375 kts | 155° |
| 2026-05-03 22:05 | 41.96361 | 43.96111 | 21236 ft | 373 kts | 155° |
| 2026-05-03 22:05 | 41.94068 | 43.97706 | 20736 ft | 371 kts | 155° |
| 2026-05-03 22:06 | 41.91778 | 43.99297 | 20240 ft | 369 kts | 155° |
| 2026-05-03 22:06 | 41.89507 | 44.00872 | 19774 ft | 367 kts | 155° |
| 2026-05-03 22:06 | 41.87247 | 44.02432 | 19293 ft | 365 kts | 155° |
| 2026-05-03 22:06 | 41.85006 | 44.03977 | 18802 ft | 364 kts | 155° |
| 2026-05-03 22:07 | 41.82755 | 44.05531 | 18327 ft | 362 kts | 155° |
| 2026-05-03 22:07 | 41.80539 | 44.07062 | 17850 ft | 360 kts | 155° |
| 2026-05-03 22:07 | 41.78295 | 44.08616 | 17337 ft | 359 kts | 155° |
| 2026-05-03 22:07 | 41.76104 | 44.10128 | 16849 ft | 357 kts | 155° |
| 2026-05-03 22:08 | 41.73908 | 44.11643 | 16373 ft | 355 kts | 155° |
| 2026-05-03 22:08 | 41.71711 | 44.13160 | 15883 ft | 354 kts | 156° |
| 2026-05-03 22:08 | 41.69533 | 44.14661 | 15382 ft | 352 kts | 156° |
| 2026-05-03 22:08 | 41.67374 | 44.16149 | 14882 ft | 350 kts | 156° |
| 2026-05-03 22:09 | 41.65325 | 44.17892 | 14376 ft | 354 kts | 140° |
| 2026-05-03 22:09 | 41.63863 | 44.20583 | 13884 ft | 361 kts | 117° |
| 2026-05-03 22:09 | 41.63272 | 44.23841 | 13409 ft | 367 kts | 95° |
| 2026-05-03 22:10 | 41.64955 | 44.30100 | 12518 ft | 370 kts | 47° |
| 2026-05-03 22:10 | 41.66946 | 44.32212 | 12109 ft | 366 kts | 33° |
| 2026-05-03 22:10 | 41.69082 | 44.34051 | 11688 ft | 363 kts | 33° |
| 2026-05-03 22:10 | 41.71197 | 44.35874 | 11261 ft | 360 kts | 33° |
| 2026-05-03 22:11 | 41.73273 | 44.37701 | 10848 ft | 357 kts | 34° |
| 2026-05-03 22:11 | 41.75323 | 44.39536 | 10500 ft | 350 kts | 34° |
| 2026-05-03 22:11 | 41.77306 | 44.41331 | 10291 ft | 337 kts | 35° |
| 2026-05-03 22:11 | 41.79158 | 44.43012 | 10185 ft | 311 kts | 35° |
| 2026-05-03 22:12 | 41.80885 | 44.44584 | 10112 ft | 290 kts | 35° |
| 2026-05-03 22:12 | 41.82519 | 44.46081 | 10037 ft | 276 kts | 37° |
| 2026-05-03 22:12 | 41.83981 | 44.47638 | 9932 ft | 263 kts | 43° |
| 2026-05-03 22:12 | 41.85287 | 44.49346 | 9639 ft | 260 kts | 48° |
| 2026-05-03 22:13 | 41.86526 | 44.51092 | 9376 ft | 257 kts | 49° |
| 2026-05-03 22:13 | 41.87728 | 44.52803 | 9119 ft | 253 kts | 48° |
| 2026-05-03 22:13 | 41.88941 | 44.54515 | 8855 ft | 249 kts | 49° |
| 2026-05-03 22:13 | 41.90127 | 44.56182 | 8602 ft | 245 kts | 49° |
| 2026-05-03 22:14 | 41.91295 | 44.57816 | 8363 ft | 241 kts | 49° |
| 2026-05-03 22:14 | 41.92275 | 44.59577 | 8081 ft | 233 kts | 72° |
| 2026-05-03 22:14 | 41.92429 | 44.61668 | 7852 ft | 222 kts | 103° |
| 2026-05-03 22:14 | 41.91803 | 44.63506 | 7633 ft | 216 kts | 130° |
| 2026-05-03 22:15 | 41.90739 | 44.64898 | 7412 ft | 213 kts | 136° |
| 2026-05-03 22:15 | 41.89656 | 44.66237 | 7207 ft | 208 kts | 135° |
| 2026-05-03 22:15 | 41.88607 | 44.67562 | 7016 ft | 205 kts | 135° |
| 2026-05-03 22:15 | 41.87545 | 44.68914 | 6921 ft | 214 kts | 135° |
| 2026-05-03 22:16 | 41.86464 | 44.70290 | 6667 ft | 211 kts | 134° |
| 2026-05-03 22:16 | 41.85408 | 44.71635 | 6439 ft | 207 kts | 134° |
| 2026-05-03 22:16 | 41.84369 | 44.72957 | 6242 ft | 202 kts | 133° |
| 2026-05-03 22:16 | 41.83384 | 44.74246 | 6127 ft | 190 kts | 133° |
| 2026-05-03 22:17 | 41.82461 | 44.75458 | 5915 ft | 183 kts | 133° |
| 2026-05-03 22:17 | 41.81578 | 44.76599 | 5759 ft | 168 kts | 133° |
| 2026-05-03 22:17 | 41.80767 | 44.77632 | 5548 ft | 154 kts | 133° |
| 2026-05-03 22:17 | 41.80021 | 44.78576 | 5330 ft | 146 kts | 133° |
| 2026-05-03 22:18 | 41.79283 | 44.79509 | 5111 ft | 146 kts | 133° |
| 2026-05-03 22:18 | 41.78537 | 44.80451 | 4897 ft | 143 kts | 134° |
| 2026-05-03 22:18 | 41.77828 | 44.81342 | 4661 ft | 137 kts | 134° |
| 2026-05-03 22:18 | 41.77145 | 44.82201 | 4457 ft | 136 kts | 133° |
| 2026-05-03 22:19 | 41.76456 | 44.83069 | 4251 ft | 135 kts | 133° |
| 2026-05-03 22:19 | 41.75773 | 44.83930 | 4045 ft | 135 kts | 133° |
| 2026-05-03 22:19 | 41.75093 | 44.84784 | 3848 ft | 134 kts | 133° |
| 2026-05-03 22:19 | 41.74412 | 44.85641 | 3640 ft | 134 kts | 133° |
| 2026-05-03 22:20 | 41.73731 | 44.86500 | 3434 ft | 133 kts | 134° |
| 2026-05-03 22:20 | 41.73056 | 44.87351 | 3228 ft | 133 kts | 134° |
| 2026-05-03 22:20 | 41.72388 | 44.88195 | 3022 ft | 133 kts | 134° |
| 2026-05-03 22:20 | 41.71713 | 44.89048 | 2812 ft | 132 kts | 135° |
| 2026-05-03 22:21 | 41.71040 | 44.89901 | 2603 ft | 132 kts | 135° |
| 2026-05-03 22:21 | 41.70375 | 44.90741 | 2397 ft | 131 kts | 136° |
| 2026-05-03 22:21 | 41.69707 | 44.91584 | 2201 ft | 131 kts | 136° |
| 2026-05-03 22:21 | 41.69040 | 44.92419 | 1991 ft | 130 kts | 137° |
| 2026-05-03 22:22 | 41.68378 | 44.93256 | 1792 ft | 130 kts | 137° |
| 2026-05-03 22:22 | 41.67725 | 44.94083 | 1610 ft | 128 kts | 137° |
| 2026-05-03 22:22 | 41.67125 | 44.94844 | 1553 ft | 96 kts | 136° |
| 2026-05-03 22:22 | 41.66748 | 44.95322 | 1541 ft | 62 kts | 136° |
| 2026-05-03 22:23 | 41.66442 | 44.95708 | 1534 ft | 57 kts | 136° |
| 2026-05-03 22:23 | 41.66162 | 44.96064 | 1526 ft | 53 kts | 136° |
| 2026-05-03 22:23 | 41.65931 | 44.96358 | 1517 ft | 36 kts | 137° |
| 2026-05-03 22:23 | 41.65847 | 44.96512 | 1509 ft | 16 kts | 89° |
| 2026-05-03 22:24 | 41.65899 | 44.96601 | 1510 ft | 10 kts | 10° |
| 2026-05-03 22:24 | 41.65946 | 44.96587 | 1515 ft | 4 kts | 331° |
| 2026-05-03 22:24 | 41.65987 | 44.96541 | 1520 ft | 17 kts | 316° |
| 2026-05-03 22:24 | 41.66085 | 44.96413 | 1527 ft | 18 kts | 316° |
| 2026-05-03 22:25 | 41.66180 | 44.96317 | 1532 ft | 15 kts | 338° |
| 2026-05-03 22:25 | 41.66276 | 44.96299 | 1537 ft | 12 kts | 4° |
| 2026-05-03 22:25 | 41.66358 | 44.96322 | 1543 ft | 13 kts | 14° |
| 2026-05-03 22:25 | 41.66470 | 44.96359 | 1549 ft | 19 kts | 13° |
| 2026-05-03 22:26 | 41.66604 | 44.96402 | 1557 ft | 15 kts | 14° |
| 2026-05-03 22:26 | 41.66682 | 44.96429 | 1564 ft | 8 kts | 14° |
| 2026-05-03 22:26 | 41.66749 | 44.96378 | 1567 ft | 11 kts | 313° |
| 2026-05-03 22:26 | 41.66788 | 44.96324 | 1568 ft | 3 kts | 325° |
| 2026-05-03 22:27 | 41.66807 | 44.96325 | 1569 ft | 2 kts | 27° |
| 2026-05-03 22:27 | 41.66831 | 44.96353 | 1571 ft | 5 kts | 43° |
| 2026-05-03 22:27 | 41.66850 | 44.96377 | 1573 ft | 2 kts | 43° |
| 2026-05-03 22:27 | 41.66852 | 44.96379 | 1573 ft | 0 kts | 43° |